createdAt,value
2022-10-17T00:00:51.006Z,70.10
2022-10-17T00:01:51.111Z,70.40
2022-10-17T00:02:50.983Z,70.00
2022-10-17T00:03:50.965Z,70.51
2022-10-17T00:04:51.032Z,70.51
2022-10-17T00:05:50.943Z,70.40
2022-10-17T00:06:50.949Z,70.51
2022-10-17T00:07:50.956Z,70.40
2022-10-17T00:08:50.917Z,70.51
2022-10-17T00:09:50.909Z,70.40
2022-10-17T00:10:50.889Z,70.75
2022-10-17T00:11:50.878Z,70.30
2022-10-17T00:12:50.872Z,69.62
2022-10-17T00:13:50.903Z,70.43
2022-10-17T00:14:50.876Z,70.54
2022-10-17T00:15:50.838Z,70.64
2022-10-17T00:16:50.830Z,70.43
2022-10-17T00:17:50.809Z,70.43
2022-10-17T00:18:50.803Z,70.43
2022-10-17T00:19:50.818Z,70.54
2022-10-17T00:20:50.805Z,69.96
2022-10-17T00:21:50.770Z,69.82
2022-10-17T00:22:50.760Z,70.84
2022-10-17T00:23:50.748Z,70.64
2022-10-17T00:24:50.728Z,70.03
2022-10-17T00:25:50.760Z,70.64
2022-10-17T00:26:50.711Z,70.57
2022-10-17T00:27:50.716Z,69.93
2022-10-17T00:28:50.759Z,70.57
2022-10-17T00:29:50.704Z,70.47
2022-10-17T00:30:50.696Z,70.57
2022-10-17T00:31:50.755Z,70.57
2022-10-17T00:32:50.643Z,70.06
2022-10-17T00:33:50.629Z,69.96
2022-10-17T00:34:50.622Z,70.57
2022-10-17T00:35:50.604Z,70.67
2022-10-17T00:36:50.606Z,70.16
2022-10-17T00:37:50.608Z,69.96
2022-10-17T00:38:50.578Z,69.96
2022-10-17T00:39:50.569Z,70.06
2022-10-17T00:40:50.623Z,70.16
2022-10-17T00:41:50.543Z,70.88
2022-10-17T00:42:50.529Z,70.26
2022-10-17T00:43:50.665Z,70.47
2022-10-17T00:44:50.505Z,70.67
2022-10-17T00:45:50.500Z,70.57
2022-10-17T00:46:50.509Z,70.26
2022-10-17T00:47:50.472Z,70.26
2022-10-17T00:48:50.464Z,70.37
2022-10-17T00:49:50.496Z,70.26
2022-10-17T00:50:50.444Z,70.78
2022-10-17T00:51:50.439Z,70.16
2022-10-17T00:52:50.418Z,70.26
2022-10-17T00:53:50.409Z,70.47
2022-10-17T00:54:50.391Z,70.06
2022-10-17T00:55:50.399Z,69.96
2022-10-17T00:56:50.377Z,70.03
2022-10-17T00:57:50.358Z,70.03
2022-10-17T00:58:50.357Z,69.93
2022-10-17T00:59:50.345Z,70.64
2022-10-17T01:00:50.329Z,70.03
2022-10-17T01:01:50.370Z,70.43
2022-10-17T01:02:50.321Z,70.43
2022-10-17T01:03:50.294Z,69.62
2022-10-17T01:04:50.283Z,69.82
2022-10-17T01:05:50.276Z,70.43
2022-10-17T01:06:50.276Z,70.78
2022-10-17T01:07:50.262Z,70.75
2022-10-17T01:08:50.259Z,70.47
2022-10-17T01:09:50.223Z,69.82
2022-10-17T01:10:50.211Z,70.16
2022-10-17T01:11:50.203Z,69.96
2022-10-17T01:12:50.194Z,69.96
2022-10-17T01:13:50.212Z,70.06
2022-10-17T01:14:50.169Z,70.57
2022-10-17T01:15:50.153Z,70.78
2022-10-17T01:16:50.142Z,70.26
2022-10-17T01:17:50.136Z,70.67
2022-10-17T01:18:50.148Z,70.16
2022-10-17T01:19:50.144Z,70.67
2022-10-17T01:20:50.094Z,70.57
2022-10-17T01:21:50.114Z,70.67
2022-10-17T01:22:50.076Z,70.67
2022-10-17T01:23:50.064Z,70.81
2022-10-17T01:24:50.093Z,70.61
2022-10-17T01:25:50.080Z,70.81
2022-10-17T01:26:50.052Z,70.78
2022-10-17T01:27:50.021Z,71.12
2022-10-17T01:28:50.039Z,70.91
2022-10-17T01:29:50.000Z,70.91
2022-10-17T01:30:49.985Z,70.91
2022-10-17T01:31:49.989Z,70.91
2022-10-17T01:32:49.976Z,71.22
2022-10-17T01:33:49.950Z,71.01
2022-10-17T01:34:49.960Z,71.12
2022-10-17T01:35:49.943Z,71.12
2022-10-17T01:36:49.920Z,70.47
2022-10-17T01:37:50.009Z,71.08
2022-10-17T01:38:49.901Z,71.08
2022-10-17T01:39:49.882Z,70.98
2022-10-17T01:40:49.876Z,70.57
2022-10-17T01:41:49.863Z,70.88
2022-10-17T01:42:49.913Z,70.88
2022-10-17T01:43:49.878Z,70.78
2022-10-17T01:44:49.822Z,71.19
2022-10-17T01:45:49.839Z,70.57
2022-10-17T01:46:49.850Z,71.19
2022-10-17T01:47:49.789Z,71.39
2022-10-17T01:48:49.781Z,71.08
2022-10-17T01:49:49.802Z,71.29
2022-10-17T01:50:49.905Z,71.29
2022-10-17T01:51:49.752Z,71.29
2022-10-17T01:52:49.749Z,71.08
2022-10-17T01:53:49.726Z,71.19
2022-10-17T01:54:49.709Z,71.39
2022-10-17T01:55:49.842Z,71.29
2022-10-17T01:56:49.695Z,71.19
2022-10-17T01:57:49.675Z,71.22
2022-10-17T01:58:49.672Z,71.22
2022-10-17T01:59:49.655Z,71.22
2022-10-17T02:00:49.646Z,71.22
2022-10-17T02:01:49.721Z,71.22
2022-10-17T02:02:49.614Z,71.12
2022-10-17T02:03:49.609Z,71.12
2022-10-17T02:04:49.694Z,71.22
2022-10-17T02:05:49.585Z,71.22
2022-10-17T02:06:49.598Z,71.01
2022-10-17T02:07:49.577Z,71.22
2022-10-17T02:08:49.554Z,71.22
2022-10-17T02:09:49.562Z,71.01
2022-10-17T02:10:49.529Z,71.22
2022-10-17T02:11:49.515Z,71.22
2022-10-17T02:12:49.543Z,71.15
2022-10-17T02:13:49.529Z,71.04
2022-10-17T02:14:49.490Z,70.94
2022-10-17T02:15:49.472Z,71.25
2022-10-17T02:16:49.464Z,70.98
2022-10-17T02:17:49.448Z,70.94
2022-10-17T02:18:49.442Z,71.08
2022-10-17T02:19:49.459Z,71.04
2022-10-17T02:20:49.416Z,71.18
2022-10-17T02:21:49.405Z,71.08
2022-10-17T02:22:49.414Z,71.08
2022-10-17T02:23:49.382Z,71.08
2022-10-17T02:24:49.370Z,70.87
2022-10-17T02:25:49.400Z,70.98
2022-10-17T02:26:49.347Z,71.08
2022-10-17T02:27:49.331Z,71.08
2022-10-17T02:28:49.419Z,70.87
2022-10-17T02:29:49.362Z,70.87
2022-10-17T02:30:49.302Z,70.87
2022-10-17T02:31:49.301Z,70.87
2022-10-17T02:32:50.278Z,70.87
2022-10-17T02:33:49.262Z,70.98
2022-10-17T02:34:49.255Z,70.98
2022-10-17T02:35:49.261Z,70.87
2022-10-17T02:36:49.231Z,70.98
2022-10-17T02:37:49.255Z,70.98
2022-10-17T02:38:49.231Z,70.98
2022-10-17T02:39:49.202Z,70.98
2022-10-17T02:40:49.190Z,70.98
2022-10-17T02:41:49.174Z,70.87
2022-10-17T02:42:49.163Z,70.98
2022-10-17T02:43:49.168Z,71.01
2022-10-17T02:44:49.142Z,71.08
2022-10-17T02:45:49.128Z,71.08
2022-10-17T02:46:49.115Z,71.18
2022-10-17T02:47:49.109Z,71.08
2022-10-17T02:48:49.093Z,71.59
2022-10-17T02:49:49.119Z,71.28
2022-10-17T02:50:49.072Z,71.59
2022-10-17T02:51:49.059Z,71.28
2022-10-17T02:52:49.048Z,71.59
2022-10-17T02:53:49.032Z,71.08
2022-10-17T02:54:49.087Z,71.73
2022-10-17T02:55:49.040Z,71.39
2022-10-17T02:56:49.025Z,71.49
2022-10-17T02:57:48.992Z,71.59
2022-10-17T02:58:48.985Z,71.73
2022-10-17T02:59:48.968Z,71.42
2022-10-17T03:00:48.960Z,71.59
2022-10-17T03:01:48.978Z,71.73
2022-10-17T03:02:48.934Z,71.52
2022-10-17T03:03:48.971Z,71.52
2022-10-17T03:04:48.911Z,71.83
2022-10-17T03:05:48.903Z,71.42
2022-10-17T03:06:48.889Z,71.42
2022-10-17T03:07:48.906Z,71.62
2022-10-17T03:08:48.879Z,71.62
2022-10-17T03:09:48.862Z,71.62
2022-10-17T03:10:48.897Z,71.52
2022-10-17T03:11:48.855Z,71.42
2022-10-17T03:12:48.850Z,71.42
2022-10-17T03:13:48.836Z,71.52
2022-10-17T03:14:48.839Z,71.52
2022-10-17T03:15:48.792Z,71.52
2022-10-17T03:16:48.779Z,71.42
2022-10-17T03:17:48.766Z,71.62
2022-10-17T03:18:50.081Z,71.73
2022-10-17T03:19:48.804Z,71.52
2022-10-17T03:20:48.732Z,71.52
2022-10-17T03:21:48.718Z,71.56
2022-10-17T03:22:48.706Z,71.56
2022-10-17T03:23:48.710Z,71.35
2022-10-17T03:24:48.691Z,71.42
2022-10-17T03:25:48.686Z,71.56
2022-10-17T03:26:48.687Z,71.73
2022-10-17T03:27:48.670Z,71.66
2022-10-17T03:28:51.922Z,71.86
2022-10-17T03:29:49.629Z,71.76
2022-10-17T03:30:48.613Z,71.86
2022-10-17T03:31:48.635Z,71.86
2022-10-17T03:32:48.599Z,71.76
2022-10-17T03:33:48.636Z,71.86
2022-10-17T03:34:48.571Z,71.76
2022-10-17T03:36:48.548Z,71.86
2022-10-17T03:37:48.551Z,71.66
2022-10-17T03:38:48.557Z,71.76
2022-10-17T03:39:48.518Z,71.66
2022-10-17T03:40:48.506Z,71.80
2022-10-17T03:41:48.511Z,71.76
2022-10-17T03:42:48.505Z,71.66
2022-10-17T03:43:48.478Z,71.69
2022-10-17T03:44:48.462Z,71.56
2022-10-17T03:45:48.438Z,71.56
2022-10-17T03:46:48.429Z,71.59
2022-10-17T03:47:48.428Z,71.59
2022-10-17T03:48:48.404Z,72.00
2022-10-17T03:49:48.414Z,72.00
2022-10-17T03:50:48.388Z,71.48
2022-10-17T03:51:48.380Z,72.00
2022-10-17T03:52:48.366Z,72.00
2022-10-17T03:53:48.353Z,71.59
2022-10-17T03:54:48.356Z,71.69
2022-10-17T03:55:48.391Z,72.20
2022-10-17T03:56:48.381Z,71.69
2022-10-17T03:57:48.306Z,71.80
2022-10-17T03:58:48.320Z,71.59
2022-10-17T03:59:48.278Z,71.69
2022-10-17T04:00:48.291Z,71.59
2022-10-17T04:01:48.351Z,71.59
2022-10-17T04:02:48.250Z,71.59
2022-10-17T04:03:48.233Z,71.59
2022-10-17T04:04:48.225Z,71.69
2022-10-17T04:05:48.239Z,72.00
2022-10-17T04:06:48.199Z,72.00
2022-10-17T04:07:48.236Z,72.00
2022-10-17T04:08:48.175Z,71.90
2022-10-17T04:09:48.227Z,71.93
2022-10-17T04:10:48.154Z,72.00
2022-10-17T04:11:48.143Z,71.90
2022-10-17T04:12:48.178Z,72.00
2022-10-17T04:13:48.139Z,71.90
2022-10-17T04:14:48.137Z,72.03
2022-10-17T04:15:48.096Z,71.93
2022-10-17T04:16:48.090Z,71.90
2022-10-17T04:17:48.672Z,71.93
2022-10-17T04:18:48.084Z,72.00
2022-10-17T04:19:48.087Z,72.00
2022-10-17T04:20:48.099Z,71.90
2022-10-17T04:21:48.037Z,71.90
2022-10-17T04:22:48.022Z,72.03
2022-10-17T04:23:48.007Z,71.93
2022-10-17T04:24:48.005Z,71.90
2022-10-17T04:25:47.997Z,72.14
2022-10-17T04:26:47.978Z,71.93
2022-10-17T04:27:47.964Z,71.93
2022-10-17T04:28:47.959Z,72.03
2022-10-17T04:29:47.944Z,71.83
2022-10-17T04:30:49.940Z,71.93
2022-10-17T04:31:47.954Z,71.83
2022-10-17T04:32:47.917Z,71.93
2022-10-17T04:33:47.972Z,71.72
2022-10-17T04:34:47.884Z,71.83
2022-10-17T04:35:47.879Z,71.83
2022-10-17T04:36:47.891Z,71.83
2022-10-17T04:37:47.878Z,71.72
2022-10-17T04:38:47.842Z,72.03
2022-10-17T04:39:47.825Z,72.24
2022-10-17T04:40:47.822Z,72.44
2022-10-17T04:41:47.816Z,72.24
2022-10-17T04:42:47.799Z,71.93
2022-10-17T04:43:50.963Z,71.93
2022-10-17T04:44:47.774Z,72.03
2022-10-17T04:45:47.759Z,72.24
2022-10-17T04:46:47.769Z,71.93
2022-10-17T04:47:47.747Z,71.83
2022-10-17T04:48:47.727Z,71.93
2022-10-17T04:49:47.754Z,72.24
2022-10-17T04:50:47.703Z,72.03
2022-10-17T04:51:47.692Z,72.14
2022-10-17T04:52:47.686Z,71.93
2022-10-17T04:53:47.671Z,71.83
2022-10-17T04:54:47.669Z,71.83
2022-10-17T04:55:47.692Z,71.72
2022-10-17T04:56:47.664Z,71.72
2022-10-17T04:57:47.635Z,71.83
2022-10-17T04:58:47.612Z,71.83
2022-10-17T04:59:47.608Z,71.83
2022-10-17T05:00:47.653Z,71.83
2022-10-17T05:01:47.590Z,71.83
2022-10-17T05:02:47.601Z,71.72
2022-10-17T05:03:47.559Z,71.83
2022-10-17T05:04:47.579Z,71.83
2022-10-17T05:05:47.560Z,71.83
2022-10-17T05:06:47.524Z,71.93
2022-10-17T05:07:47.550Z,71.83
2022-10-17T05:08:47.502Z,71.72
2022-10-17T05:09:47.500Z,72.03
2022-10-17T05:10:47.552Z,71.93
2022-10-17T05:11:47.473Z,72.03
2022-10-17T05:12:47.456Z,71.83
2022-10-17T05:13:47.472Z,71.83
2022-10-17T05:14:47.436Z,71.83
2022-10-17T05:15:47.430Z,71.93
2022-10-17T05:16:47.415Z,71.83
2022-10-17T05:17:47.399Z,71.83
2022-10-17T05:18:50.645Z,71.72
2022-10-17T05:19:48.388Z,71.83
2022-10-17T05:20:47.382Z,71.93
2022-10-17T05:21:47.365Z,71.93
2022-10-17T05:22:47.345Z,71.93
2022-10-17T05:23:47.330Z,71.93
2022-10-17T05:24:47.317Z,71.80
2022-10-17T05:25:47.341Z,72.00
2022-10-17T05:26:47.301Z,71.83
2022-10-17T05:27:47.328Z,72.00
2022-10-17T05:28:47.377Z,71.90
2022-10-17T05:29:47.291Z,72.00
2022-10-17T05:30:47.250Z,72.00
2022-10-17T05:31:47.260Z,72.00
2022-10-17T05:32:47.260Z,72.00
2022-10-17T05:33:47.268Z,72.00
2022-10-17T05:34:47.234Z,72.00
2022-10-17T05:35:47.196Z,72.00
2022-10-17T05:36:47.180Z,71.69
2022-10-17T05:37:47.189Z,71.66
2022-10-17T05:38:47.159Z,71.56
2022-10-17T05:39:50.677Z,71.66
2022-10-17T05:40:47.171Z,71.66
2022-10-17T05:41:47.126Z,71.86
2022-10-17T05:42:47.123Z,71.45
2022-10-17T05:43:47.170Z,71.83
2022-10-17T05:44:47.091Z,71.52
2022-10-17T05:45:47.093Z,71.56
2022-10-17T05:46:47.929Z,71.62
2022-10-17T05:47:47.062Z,71.62
2022-10-17T05:48:47.051Z,71.62
2022-10-17T05:49:51.490Z,71.62
2022-10-17T05:50:48.139Z,71.62
2022-10-17T05:51:47.025Z,71.59
2022-10-17T05:52:47.332Z,71.49
2022-10-17T05:53:46.995Z,71.59
2022-10-17T05:54:46.983Z,71.39
2022-10-17T05:55:46.986Z,71.49
2022-10-17T05:56:46.954Z,71.59
2022-10-17T05:57:46.947Z,71.39
2022-10-17T05:58:52.292Z,71.59
2022-10-17T05:59:47.926Z,71.36
2022-10-17T06:01:47.006Z,71.56
2022-10-17T06:02:46.918Z,71.56
2022-10-17T06:03:46.883Z,71.62
2022-10-17T06:04:46.865Z,71.62
2022-10-17T06:05:46.873Z,71.42
2022-10-17T06:06:46.868Z,71.12
2022-10-17T06:07:46.840Z,71.53
2022-10-17T06:08:46.829Z,71.01
2022-10-17T06:09:46.862Z,70.91
2022-10-17T06:10:46.813Z,70.98
2022-10-17T06:11:46.811Z,70.98
2022-10-17T06:12:46.769Z,70.88
2022-10-17T06:13:46.791Z,70.78
2022-10-17T06:14:46.749Z,70.88
2022-10-17T06:15:46.745Z,70.75
2022-10-17T06:16:46.729Z,70.75
2022-10-17T06:17:46.730Z,70.75
2022-10-17T06:18:46.709Z,70.84
2022-10-17T06:19:46.724Z,70.81
2022-10-17T06:20:46.693Z,70.71
2022-10-17T06:21:46.671Z,70.81
2022-10-17T06:22:46.680Z,70.81
2022-10-17T06:23:46.648Z,70.68
2022-10-17T06:24:46.633Z,70.81
2022-10-17T06:25:46.667Z,70.68
2022-10-17T06:26:46.650Z,70.57
2022-10-17T06:27:46.665Z,70.68
2022-10-17T06:28:46.731Z,70.78
2022-10-17T06:29:46.580Z,70.78
2022-10-17T06:30:46.569Z,70.78
2022-10-17T06:31:46.588Z,70.75
2022-10-17T06:32:46.548Z,70.64
2022-10-17T06:33:46.534Z,70.75
2022-10-17T06:34:46.528Z,70.64
2022-10-17T06:35:46.520Z,70.75
2022-10-17T06:36:46.545Z,70.75
2022-10-17T06:37:46.519Z,70.72
2022-10-17T06:38:46.507Z,70.61
2022-10-17T06:39:46.469Z,70.61
2022-10-17T06:40:46.458Z,70.61
2022-10-17T06:41:46.446Z,70.89
2022-10-17T06:42:46.435Z,70.57
2022-10-17T06:43:46.463Z,70.57
2022-10-17T06:44:46.420Z,70.78
2022-10-17T06:45:46.464Z,70.65
2022-10-17T06:46:46.386Z,70.95
2022-10-17T06:47:46.496Z,70.75
2022-10-17T06:48:46.386Z,70.85
2022-10-17T06:49:46.465Z,70.75
2022-10-17T06:50:46.337Z,70.95
2022-10-17T06:51:46.329Z,70.92
2022-10-17T06:52:46.338Z,70.82
2022-10-17T06:53:46.307Z,70.82
2022-10-17T06:54:46.341Z,70.72
2022-10-17T06:55:46.311Z,70.82
2022-10-17T06:56:46.273Z,70.92
2022-10-17T06:57:46.255Z,70.78
2022-10-17T06:58:46.250Z,70.78
2022-10-17T06:59:46.235Z,70.89
2022-10-17T07:00:46.383Z,70.86
2022-10-17T07:01:47.217Z,70.78
2022-10-17T07:02:46.203Z,70.78
2022-10-17T07:03:46.194Z,70.55
2022-10-17T07:04:46.176Z,70.86
2022-10-17T07:05:46.183Z,70.75
2022-10-17T07:06:46.195Z,70.75
2022-10-17T07:07:47.524Z,70.82
2022-10-17T07:08:46.142Z,70.62
2022-10-17T07:09:46.122Z,70.72
2022-10-17T07:10:46.155Z,70.82
2022-10-17T07:11:49.437Z,70.68
2022-10-17T07:12:46.155Z,70.68
2022-10-17T07:13:46.176Z,70.79
2022-10-17T07:14:46.062Z,70.68
2022-10-17T07:15:46.135Z,70.68
2022-10-17T07:16:46.047Z,70.79
2022-10-17T07:17:46.057Z,70.79
2022-10-17T07:18:46.091Z,70.86
2022-10-17T07:19:46.054Z,70.75
2022-10-17T07:20:46.009Z,70.14
2022-10-17T07:21:45.994Z,70.75
2022-10-17T07:22:46.024Z,70.11
2022-10-17T07:23:45.961Z,70.01
2022-10-17T07:24:45.968Z,69.91
2022-10-17T07:25:45.958Z,70.21
2022-10-17T07:26:45.973Z,70.28
2022-10-17T07:27:45.953Z,70.08
2022-10-17T07:28:46.028Z,70.38
2022-10-17T07:29:45.902Z,69.87
2022-10-17T07:30:49.456Z,70.25
2022-10-17T07:31:46.906Z,70.15
2022-10-17T07:32:45.863Z,70.04
2022-10-17T07:34:45.844Z,69.60
2022-10-17T07:35:45.894Z,69.71
2022-10-17T07:36:45.819Z,69.51
2022-10-17T07:37:45.832Z,69.60
2022-10-17T07:38:45.798Z,69.51
2022-10-17T07:39:45.782Z,69.47
2022-10-17T07:40:45.982Z,69.68
2022-10-17T07:41:45.763Z,70.08
2022-10-17T07:42:45.779Z,69.47
2022-10-17T07:43:45.772Z,69.54
2022-10-17T07:44:45.820Z,69.84
2022-10-17T07:45:45.782Z,69.84
2022-10-17T07:46:45.704Z,70.12
2022-10-17T07:47:45.685Z,69.92
2022-10-17T07:48:45.683Z,69.00
2022-10-17T07:49:45.705Z,69.31
2022-10-17T07:50:45.708Z,69.31
2022-10-17T07:52:45.642Z,69.17
2022-10-17T07:53:48.689Z,69.57
2022-10-17T07:54:45.617Z,69.27
2022-10-17T07:55:46.466Z,69.24
2022-10-17T07:56:46.590Z,69.14
2022-10-17T07:57:45.598Z,69.54
2022-10-17T07:58:45.649Z,69.65
2022-10-17T07:59:45.587Z,69.54
2022-10-17T08:00:45.726Z,69.61
2022-10-17T08:01:45.545Z,69.61
2022-10-17T08:02:45.578Z,69.01
2022-10-17T08:03:45.530Z,69.31
2022-10-17T08:04:45.504Z,69.27
2022-10-17T08:05:45.488Z,69.07
2022-10-17T08:06:45.494Z,69.27
2022-10-17T08:07:45.503Z,69.27
2022-10-17T08:08:45.449Z,69.58
2022-10-17T08:09:45.464Z,68.97
2022-10-17T08:10:45.429Z,69.07
2022-10-17T08:11:45.420Z,68.84
2022-10-17T08:12:45.410Z,68.97
2022-10-17T08:13:45.498Z,68.97
2022-10-17T08:14:45.418Z,68.84
2022-10-17T08:15:45.394Z,69.45
2022-10-17T08:16:45.370Z,68.94
2022-10-17T08:17:45.483Z,69.45
2022-10-17T08:18:45.350Z,69.45
2022-10-17T08:19:45.350Z,68.94
2022-10-17T08:20:45.319Z,68.94
2022-10-17T08:21:45.304Z,69.75
2022-10-17T08:22:45.291Z,69.51
2022-10-17T08:23:45.317Z,69.21
2022-10-17T08:24:45.272Z,69.62
2022-10-17T08:25:45.402Z,69.21
2022-10-17T08:26:48.281Z,69.31
2022-10-17T08:27:45.237Z,69.31
2022-10-17T08:28:45.294Z,69.28
2022-10-17T08:29:45.223Z,69.38
2022-10-17T08:30:45.234Z,69.38
2022-10-17T08:31:47.802Z,69.28
2022-10-17T08:32:45.178Z,69.38
2022-10-17T08:33:45.172Z,69.28
2022-10-17T08:34:46.920Z,69.35
2022-10-17T08:35:45.148Z,69.35
2022-10-17T08:36:45.133Z,68.84
2022-10-17T08:37:45.135Z,69.65
2022-10-17T08:38:47.914Z,68.84
2022-10-17T08:39:46.125Z,68.84
2022-10-17T08:40:45.094Z,68.84
2022-10-17T08:41:45.205Z,68.81
2022-10-17T08:42:45.062Z,68.81
2022-10-17T08:43:45.145Z,68.81
2022-10-17T08:44:45.044Z,68.91
2022-10-17T08:45:45.057Z,68.88
2022-10-17T08:46:45.037Z,68.88
2022-10-17T08:47:45.035Z,68.77
2022-10-17T08:48:46.558Z,68.88
2022-10-17T08:49:45.021Z,69.08
2022-10-17T08:50:44.991Z,69.08
2022-10-17T08:51:45.021Z,69.05
2022-10-17T08:52:45.015Z,68.85
2022-10-17T08:53:44.943Z,68.74
2022-10-17T08:54:44.934Z,68.81
2022-10-17T08:55:45.697Z,68.85
2022-10-17T08:56:48.786Z,69.15
2022-10-17T08:57:44.896Z,68.71
2022-10-17T08:58:44.881Z,68.71
2022-10-17T08:59:44.874Z,68.71
2022-10-17T09:00:44.857Z,69.01
2022-10-17T09:01:44.880Z,68.71
2022-10-17T09:02:44.912Z,68.78
2022-10-17T09:03:44.831Z,68.78
2022-10-17T09:04:44.815Z,69.09
2022-10-17T09:05:44.874Z,68.98
2022-10-17T09:06:44.791Z,69.18
2022-10-17T09:07:44.889Z,69.15
2022-10-17T09:08:44.766Z,69.05
2022-10-17T09:09:44.770Z,68.35
2022-10-17T09:10:44.757Z,68.82
2022-10-17T09:11:44.839Z,68.51
2022-10-17T09:12:44.721Z,68.55
2022-10-17T09:13:44.738Z,68.71
2022-10-17T09:14:44.698Z,68.21
2022-10-17T09:15:44.696Z,68.41
2022-10-17T09:16:44.703Z,68.11
2022-10-17T09:17:45.506Z,68.28
2022-10-17T09:18:44.692Z,68.08
2022-10-17T09:19:48.433Z,67.98
2022-10-17T09:20:44.634Z,68.48
2022-10-17T09:21:44.627Z,68.68
2022-10-17T09:22:44.607Z,68.48
2022-10-17T09:23:44.597Z,68.59
2022-10-17T09:24:44.587Z,69.06
2022-10-17T09:25:44.587Z,68.65
2022-10-17T09:26:44.558Z,68.45
2022-10-17T09:27:44.565Z,68.55
2022-10-17T09:28:44.671Z,68.65
2022-10-17T09:29:44.537Z,68.75
2022-10-17T09:30:45.787Z,68.62
2022-10-17T09:31:44.561Z,68.72
2022-10-17T09:32:44.532Z,68.52
2022-10-17T09:33:55.896Z,68.79
2022-10-17T09:34:45.534Z,68.79
2022-10-17T09:35:44.460Z,68.52
2022-10-17T09:36:44.461Z,68.49
2022-10-17T09:37:44.509Z,67.88
2022-10-17T09:38:44.459Z,68.65
2022-10-17T09:39:44.415Z,67.95
2022-10-17T09:40:44.409Z,67.88
2022-10-17T09:42:45.393Z,67.85
2022-10-17T09:43:44.393Z,67.85
2022-10-17T09:44:44.361Z,68.15
2022-10-17T09:45:44.357Z,68.32
2022-10-17T09:46:44.502Z,68.32
2022-10-17T09:47:44.325Z,68.02
2022-10-17T09:48:44.457Z,68.22
2022-10-17T09:49:44.304Z,67.99
2022-10-17T09:50:44.349Z,68.29
2022-10-17T09:51:44.309Z,68.19
2022-10-17T09:52:44.269Z,68.19
2022-10-17T09:53:44.255Z,68.39
2022-10-17T09:54:44.255Z,68.29
2022-10-17T09:55:44.236Z,67.99
2022-10-17T09:56:44.224Z,68.26
2022-10-17T09:57:44.217Z,68.15
2022-10-17T09:58:44.226Z,68.05
2022-10-17T09:59:44.189Z,68.12
2022-10-17T10:00:44.305Z,68.12
2022-10-17T10:01:44.196Z,68.12
2022-10-17T10:02:44.151Z,68.12
2022-10-17T10:03:44.144Z,67.82
2022-10-17T10:05:03.221Z,68.09
2022-10-17T10:05:45.139Z,67.39
2022-10-17T10:06:44.206Z,67.59
2022-10-17T10:07:44.100Z,67.69
2022-10-17T10:08:44.087Z,67.59
2022-10-17T10:09:44.076Z,67.49
2022-10-17T10:10:44.063Z,67.25
2022-10-17T10:11:44.563Z,67.29
2022-10-17T10:12:44.045Z,67.25
2022-10-17T10:13:44.028Z,67.46
2022-10-17T10:14:47.136Z,67.46
2022-10-17T10:15:44.016Z,67.55
2022-10-17T10:16:43.994Z,67.46
2022-10-17T10:17:44.033Z,67.22
2022-10-17T10:18:45.507Z,67.52
2022-10-17T10:19:43.964Z,67.02
2022-10-17T10:20:43.954Z,67.52
2022-10-17T10:21:46.439Z,67.49
2022-10-17T10:22:43.977Z,67.49
2022-10-17T10:23:43.929Z,67.29
2022-10-17T10:24:44.526Z,67.69
2022-10-17T10:25:43.897Z,67.09
2022-10-17T10:26:43.878Z,66.89
2022-10-17T10:27:43.876Z,67.56
2022-10-17T10:28:43.890Z,67.06
2022-10-17T10:29:43.971Z,66.76
2022-10-17T10:30:43.840Z,66.76
2022-10-17T10:31:43.846Z,67.46
2022-10-17T10:32:43.817Z,67.46
2022-10-17T10:33:46.996Z,66.76
2022-10-17T10:34:44.821Z,66.76
2022-10-17T10:35:43.804Z,66.86
2022-10-17T10:36:43.774Z,66.86
2022-10-17T10:37:43.865Z,67.16
2022-10-17T10:38:43.774Z,67.66
2022-10-17T10:39:43.742Z,67.66
2022-10-17T10:40:43.743Z,67.72
2022-10-17T10:41:44.522Z,67.53
2022-10-17T10:42:43.738Z,67.63
2022-10-17T10:43:43.698Z,67.53
2022-10-17T10:44:43.684Z,66.83
2022-10-17T10:45:48.311Z,67.43
2022-10-17T10:46:44.676Z,66.83
2022-10-17T10:47:43.644Z,66.73
2022-10-17T10:48:43.639Z,66.73
2022-10-17T10:49:43.623Z,66.73
2022-10-17T10:50:45.440Z,66.89
2022-10-17T10:51:43.647Z,66.89
2022-10-17T10:52:43.632Z,66.83
2022-10-17T10:53:44.528Z,66.80
2022-10-17T10:54:43.639Z,66.80
2022-10-17T10:55:43.564Z,67.10
2022-10-17T10:56:43.548Z,67.00
2022-10-17T10:57:43.540Z,66.80
2022-10-17T10:58:43.565Z,67.00
2022-10-17T10:59:43.514Z,67.00
2022-10-17T11:00:43.561Z,66.89
2022-10-17T11:01:43.492Z,67.10
2022-10-17T11:02:43.495Z,67.10
2022-10-17T11:03:43.559Z,66.60
2022-10-17T11:04:43.478Z,66.86
2022-10-17T11:05:43.483Z,66.89
2022-10-17T11:06:43.433Z,66.56
2022-10-17T11:07:43.423Z,66.77
2022-10-17T11:08:43.407Z,66.56
2022-10-17T11:09:43.402Z,66.56
2022-10-17T11:10:43.442Z,66.86
2022-10-17T11:11:43.400Z,66.56
2022-10-17T11:13:43.359Z,66.56
2022-10-17T11:14:43.367Z,66.47
2022-10-17T11:15:43.392Z,66.53
2022-10-17T11:16:43.334Z,66.43
2022-10-17T11:17:43.306Z,66.66
2022-10-17T11:18:43.334Z,66.66
2022-10-17T11:19:43.286Z,66.56
2022-10-17T11:20:43.276Z,66.66
2022-10-17T11:21:43.272Z,66.63
2022-10-17T11:22:43.265Z,66.63
2022-10-17T11:23:43.268Z,66.43
2022-10-17T11:24:43.263Z,66.47
2022-10-17T11:25:43.214Z,66.73
2022-10-17T11:26:43.236Z,67.03
2022-10-17T11:27:43.200Z,67.03
2022-10-17T11:28:43.445Z,67.03
2022-10-17T11:29:43.179Z,67.03
2022-10-17T11:31:43.173Z,66.43
2022-10-17T11:32:43.170Z,66.43
2022-10-17T11:33:43.126Z,66.43
2022-10-17T11:34:43.134Z,66.43
2022-10-17T11:35:43.111Z,66.33
2022-10-17T11:36:43.092Z,66.24
2022-10-17T11:37:45.062Z,66.50
2022-10-17T11:38:44.068Z,66.24
2022-10-17T11:39:43.125Z,66.80
2022-10-17T11:40:43.131Z,66.50
2022-10-17T11:41:43.034Z,66.70
2022-10-17T11:42:43.061Z,66.60
2022-10-17T11:43:43.008Z,66.63
2022-10-17T11:44:43.154Z,66.60
2022-10-17T11:45:43.044Z,66.70
2022-10-17T11:46:43.041Z,66.67
2022-10-17T11:47:43.550Z,66.60
2022-10-17T11:48:42.975Z,66.90
2022-10-17T11:49:43.943Z,66.47
2022-10-17T11:52:00.895Z,66.50
2022-10-17T11:52:55.948Z,66.40
2022-10-17T11:53:43.910Z,66.37
2022-10-17T11:54:42.891Z,66.07
2022-10-17T11:55:42.892Z,66.27
2022-10-17T11:56:43.098Z,66.37
2022-10-17T11:57:42.887Z,66.47
2022-10-17T11:58:42.879Z,65.97
2022-10-17T11:59:42.844Z,66.37
2022-10-17T12:00:45.141Z,66.47
2022-10-17T12:01:42.816Z,66.17
2022-10-17T12:02:42.814Z,65.97
2022-10-17T12:03:42.806Z,65.97
2022-10-17T12:04:47.637Z,66.37
2022-10-17T12:05:43.767Z,66.37
2022-10-17T12:06:42.760Z,65.97
2022-10-17T12:08:42.738Z,66.37
2022-10-17T12:09:42.740Z,66.17
2022-10-17T12:10:42.711Z,66.37
2022-10-17T12:11:42.704Z,66.27
2022-10-17T12:12:42.688Z,66.27
2022-10-17T12:13:42.709Z,66.27
2022-10-17T12:14:42.695Z,66.17
2022-10-17T12:15:46.562Z,66.17
2022-10-17T12:17:42.637Z,66.07
2022-10-17T12:18:42.619Z,66.07
2022-10-17T12:19:42.672Z,65.97
2022-10-17T12:20:42.600Z,66.37
2022-10-17T12:21:43.464Z,66.37
2022-10-17T12:22:42.585Z,66.37
2022-10-17T12:23:42.563Z,66.17
2022-10-17T12:24:42.581Z,66.17
2022-10-17T12:25:42.653Z,66.17
2022-10-17T12:26:42.533Z,66.27
2022-10-17T12:27:42.560Z,66.07
2022-10-17T12:28:42.577Z,65.97
2022-10-17T12:29:42.505Z,66.07
2022-10-17T12:30:42.512Z,66.17
2022-10-17T12:31:42.471Z,66.07
2022-10-17T12:33:00.602Z,66.07
2022-10-17T12:33:43.466Z,66.17
2022-10-17T12:35:42.458Z,66.30
2022-10-17T12:36:42.473Z,66.10
2022-10-17T12:37:42.414Z,66.30
2022-10-17T12:38:43.092Z,66.20
2022-10-17T12:39:42.425Z,66.00
2022-10-17T12:40:47.756Z,66.00
2022-10-17T12:41:43.380Z,66.20
2022-10-17T12:42:42.357Z,66.03
2022-10-17T12:43:44.710Z,66.03
2022-10-17T12:44:42.341Z,66.13
2022-10-17T12:45:42.375Z,66.43
2022-10-17T12:46:42.333Z,66.43
2022-10-17T12:47:42.303Z,66.13
2022-10-17T12:48:42.317Z,66.13
2022-10-17T12:49:42.277Z,66.03
2022-10-17T12:50:42.302Z,66.03
2022-10-17T12:51:42.268Z,66.24
2022-10-17T12:52:42.272Z,66.24
2022-10-17T12:53:42.264Z,66.24
2022-10-17T12:54:47.789Z,66.06
2022-10-17T12:55:43.208Z,66.36
2022-10-17T12:56:42.199Z,66.17
2022-10-17T12:57:42.215Z,66.27
2022-10-17T12:58:42.177Z,66.17
2022-10-17T12:59:42.171Z,66.17
2022-10-17T13:00:49.798Z,66.36
2022-10-17T13:01:43.212Z,66.27
2022-10-17T13:02:42.181Z,66.27
2022-10-17T13:03:42.153Z,66.27